»·PEaware :: N410LT KPDX-KBOI

N410LT :: KPDX-KBOI

FLIGHT INFORMATION

Flight Status: Arrived
Operator: Privately registered:
United States
More flights under this callsign
Pilot: Douglas B. (28959)
Aircraft: Unknown
(EPIC)
More flights by this aircraft type
Origin: KPDX Portland Intl
United States
Destination: KBOI Boise Air Terminal/Gowen
United States
More flights between these airports :: More routes between these airports
Route: +PTLD1 IMB JIMMI
File this flight plan on PilotEdge
Remarks:
Altitude:
(Current/Filed)
25,000ft
Speed:
(Current/Filed)
300kts
Departed: 16-May-20 10:33 AM
Arrived: 16-May-20 11:34 AM
Distance/Time
Traveled:
298nm/1:01
Distance/Time
To Go:
Arrived

Flight Plot

Page will automatically refresh every two minutes.


Map Options




Map Legend


Flown Route
Filed Route
Departure Airport
Arrival Airport
Navaid (VOR, NDB)
Fix

Horizontal Profiles

Position Reports

Time Latitude Longitude Heading Altitude Ground
Speed
16-May-20 10:03 45.587619 -122.584007 209 20ft 0kts
16-May-20 10:04 45.587619 -122.584007 209 20ft 0kts
16-May-20 10:05 45.587619 -122.584007 209 20ft 0kts
16-May-20 10:06 45.587619 -122.584007 209 20ft 0kts
16-May-20 10:07 45.587619 -122.584007 209 20ft 0kts
16-May-20 10:08 45.587619 -122.584007 209 20ft 0kts
16-May-20 10:09 45.587619 -122.584007 209 20ft 0kts
16-May-20 10:10 45.587619 -122.584007 209 20ft 0kts
16-May-20 10:11 45.587619 -122.584007 209 20ft 0kts
16-May-20 10:12 45.587619 -122.584007 209 20ft 0kts
16-May-20 10:13 45.587619 -122.584007 209 20ft 0kts
16-May-20 10:14 45.587619 -122.584007 209 20ft 0kts
16-May-20 10:15 45.587619 -122.584007 209 20ft 0kts
16-May-20 10:16 45.587619 -122.584007 209 20ft 0kts
16-May-20 10:17 45.587619 -122.584007 209 20ft 0kts
16-May-20 10:18 45.587619 -122.584007 209 20ft 0kts
16-May-20 10:19 45.587619 -122.584007 209 20ft 0kts
16-May-20 10:20 45.587619 -122.584007 209 20ft 0kts
16-May-20 10:21 45.587619 -122.584007 209 20ft 0kts
16-May-20 10:22 45.587619 -122.584007 209 20ft 0kts
16-May-20 10:23 45.587619 -122.584007 209 20ft 0kts
16-May-20 10:24 45.587619 -122.584007 209 20ft 0kts
16-May-20 10:25 45.587618 -122.584007 209 20ft 0kts
16-May-20 10:26 45.588068 -122.585586 308 20ft 3kts
16-May-20 10:27 45.589755 -122.588376 306 20ft 18kts
16-May-20 10:28 45.592294 -122.594605 298 21ft 18kts
16-May-20 10:30 45.593923 -122.596851 13 23ft 0kts
16-May-20 10:31 45.593976 -122.596170 40 23ft 0kts
16-May-20 10:32 45.594405 -122.595740 32 23ft 12kts
16-May-20 10:33 45.593503 -122.592321 117 20ft 75kts
16-May-20 10:34 45.567869 -122.542141 149 1162ft 215kts
16-May-20 10:35 45.515208 -122.498887 149 3430ft 225kts
16-May-20 10:36 45.461638 -122.454789 149 5836ft 223kts
16-May-20 10:37 45.408313 -122.410758 151 8195ft 221kts
16-May-20 10:38 45.354853 -122.366411 154 10381ft 228kts
16-May-20 10:39 45.325111 -122.282703 115 12394ft 254kts
16-May-20 10:40 45.301671 -122.188615 115 14415ft 261kts
16-May-20 10:41 45.275917 -122.085995 114 14917ft 302kts
16-May-20 10:42 45.247166 -121.971736 114 14965ft 310kts
16-May-20 10:43 45.218208 -121.857268 114 14979ft 312kts
16-May-20 10:43 45.193657 -121.760670 114 15028ft 311kts
16-May-20 10:45 45.158523 -121.623141 114 15035ft 313kts
16-May-20 10:46 45.128009 -121.504345 114 15057ft 314kts
16-May-20 10:46 45.102389 -121.405074 114 15057ft 315kts
16-May-20 10:47 45.071545 -121.286116 115 15056ft 315kts
16-May-20 10:49 45.035389 -121.147431 115 15056ft 316kts
16-May-20 10:50 45.003987 -121.027642 115 15064ft 316kts
16-May-20 10:50 44.977848 -120.928394 115 15057ft 317kts
16-May-20 10:51 44.946159 -120.808622 115 15087ft 316kts
16-May-20 10:52 44.916035 -120.695300 115 15924ft 301kts
16-May-20 10:53 44.885733 -120.581895 115 16282ft 304kts
16-May-20 10:54 44.854603 -120.465877 115 16957ft 305kts
16-May-20 10:55 44.823804 -120.351710 115 18131ft 306kts
16-May-20 10:56 44.792385 -120.235769 116 18978ft 316kts
16-May-20 10:57 44.759690 -120.115770 116 19867ft 322kts
16-May-20 10:58 44.726578 -119.994810 116 20712ft 326kts
16-May-20 10:59 44.692993 -119.872728 116 21535ft 329kts
16-May-20 11:00 44.658883 -119.749363 116 22266ft 333kts
16-May-20 11:01 44.623434 -119.625553 116 23042ft 332kts
16-May-20 11:02 44.587903 -119.503661 116 23810ft 333kts
16-May-20 11:03 44.551725 -119.380135 116 24396ft 337kts
16-May-20 11:04 44.514989 -119.255333 117 24877ft 340kts
16-May-20 11:05 44.477594 -119.128941 117 25025ft 349kts
16-May-20 11:06 44.439332 -119.000243 118 25021ft 353kts
16-May-20 11:07 44.400530 -118.870403 118 25022ft 355kts
16-May-20 11:08 44.361310 -118.739834 118 25022ft 356kts
16-May-20 11:09 44.321696 -118.608623 118 25036ft 357kts
16-May-20 11:10 44.281943 -118.477630 117 25047ft 357kts
16-May-20 11:11 44.242425 -118.348068 118 25072ft 353kts
16-May-20 11:12 44.203906 -118.222411 118 25073ft 339kts
16-May-20 11:13 44.166182 -118.099946 118 25072ft 334kts
16-May-20 11:14 44.128475 -117.978152 118 24456ft 341kts
16-May-20 11:15 44.089552 -117.853001 118 23021ft 349kts
16-May-20 11:16 44.049614 -117.725185 117 21346ft 355kts
16-May-20 11:17 44.009238 -117.596608 117 19677ft 357kts
16-May-20 11:18 43.968639 -117.467954 117 17977ft 349kts
16-May-20 11:19 43.929576 -117.344708 117 17000ft 324kts
16-May-20 11:20 43.893785 -117.232344 117 17004ft 304kts
16-May-20 11:21 43.858962 -117.123478 117 17008ft 302kts
16-May-20 11:22 43.824927 -117.017565 117 15323ft 284kts
16-May-20 11:23 43.793084 -116.918815 117 13371ft 264kts
16-May-20 11:24 43.763405 -116.827104 117 11319ft 249kts
16-May-20 11:25 43.735157 -116.740100 116 9279ft 239kts
16-May-20 11:26 43.708040 -116.656857 115 7243ft 230kts
16-May-20 11:27 43.680325 -116.571959 116 5218ft 247kts
16-May-20 11:28 43.654020 -116.491732 116 4789ft 202kts
16-May-20 11:29 43.631245 -116.422687 116 4030ft 198kts
16-May-20 11:30 43.608770 -116.351116 116 3648ft 202kts
16-May-20 11:31 43.588214 -116.287526 120 3535ft 122kts
16-May-20 11:32 43.575880 -116.252814 119 3143ft 91kts
16-May-20 11:33 43.568203 -116.231010 113 2836ft 24kts
16-May-20 11:34 43.568303 -116.228983 22 2838ft 0kts
16-May-20 11:35 43.570060 -116.230594 29 2834ft 5kts

Navigation Log

Ident Type
Flight plan parsing failed, navigation log unavailable